createdAt,value
2022-08-09T00:01:55.336Z,70.95
2022-08-09T00:05:03.099Z,70.89
2022-08-09T00:08:31.930Z,71.40
2022-08-09T00:11:58.617Z,71.63
2022-08-09T00:15:06.283Z,71.97
2022-08-09T00:18:11.310Z,72.23
2022-08-09T00:21:15.320Z,72.68
2022-08-09T00:24:20.116Z,73.15
2022-08-09T00:27:23.246Z,73.29
2022-08-09T00:30:30.666Z,73.16
2022-08-09T00:33:50.682Z,73.14
2022-08-09T00:36:54.502Z,72.80
2022-08-09T00:40:14.161Z,72.48
2022-08-09T00:44:16.634Z,72.19
2022-08-09T00:46:56.418Z,72.15
2022-08-09T00:50:04.949Z,72.04
2022-08-09T00:53:10.983Z,71.79
2022-08-09T00:56:15.997Z,71.67
2022-08-09T00:59:20.141Z,71.72
2022-08-09T01:02:51.381Z,71.72
2022-08-09T01:06:17.502Z,71.87
2022-08-09T01:09:37.343Z,72.10
2022-08-09T01:12:46.122Z,71.97
2022-08-09T01:15:53.022Z,72.21
2022-08-09T01:19:04.649Z,72.45
2022-08-09T01:22:33.151Z,72.91
2022-08-09T01:26:01.090Z,73.34
2022-08-09T01:29:06.629Z,73.91
2022-08-09T01:32:32.093Z,74.27
2022-08-09T01:35:53.659Z,74.55
2022-08-09T01:38:58.957Z,74.86
2022-08-09T01:42:11.256Z,75.10
2022-08-09T01:45:15.224Z,75.24
2022-08-09T01:48:19.752Z,75.16
2022-08-09T01:51:34.303Z,75.43
2022-08-09T01:54:50.672Z,75.75
2022-08-09T01:57:55.845Z,75.33
2022-08-09T02:01:01.255Z,75.09
2022-08-09T02:04:08.573Z,74.94
2022-08-09T02:08:35.548Z,74.92
2022-08-09T02:10:50.843Z,75.41
2022-08-09T02:14:06.598Z,75.65
2022-08-09T02:17:59.447Z,75.97
2022-08-09T02:20:39.821Z,75.87
2022-08-09T02:23:56.701Z,75.73
2022-08-09T02:27:03.604Z,75.46
2022-08-09T02:30:11.081Z,74.99
2022-08-09T02:33:20.203Z,75.21
2022-08-09T02:36:39.463Z,75.66
2022-08-09T02:39:54.930Z,75.71
2022-08-09T02:43:02.876Z,76.03
2022-08-09T02:46:09.469Z,76.79
2022-08-09T02:49:16.170Z,77.72
2022-08-09T02:52:21.153Z,77.15
2022-08-09T02:55:39.360Z,77.47
2022-08-09T02:58:51.540Z,77.54
2022-08-09T03:02:06.686Z,77.29
2022-08-09T03:05:16.862Z,77.84
2022-08-09T03:08:22.123Z,77.24
2022-08-09T03:11:37.628Z,77.55
2022-08-09T03:14:51.946Z,78.02
2022-08-09T03:17:57.926Z,78.25
2022-08-09T03:21:03.968Z,78.73
2022-08-09T03:24:06.822Z,79.23
2022-08-09T03:27:14.247Z,78.57
2022-08-09T03:30:33.499Z,79.17
2022-08-09T03:33:54.205Z,78.39
2022-08-09T03:37:02.426Z,78.74
2022-08-09T03:40:22.736Z,79.42
2022-08-09T03:43:32.210Z,79.30
2022-08-09T03:46:37.005Z,79.02
2022-08-09T03:49:41.073Z,79.08
2022-08-09T03:53:03.577Z,79.37
2022-08-09T03:56:08.916Z,79.87
2022-08-09T03:59:21.013Z,79.34
2022-08-09T04:02:31.551Z,78.88
2022-08-09T04:05:40.545Z,78.14
2022-08-09T04:08:46.750Z,78.29
2022-08-09T04:12:04.234Z,78.55
2022-08-09T04:15:11.575Z,77.97
2022-08-09T04:18:21.214Z,76.85
2022-08-09T04:21:24.190Z,75.64
2022-08-09T04:24:27.357Z,75.77
2022-08-09T04:27:30.169Z,74.88
2022-08-09T04:30:35.751Z,74.64
2022-08-09T04:33:47.262Z,74.00
2022-08-09T04:36:56.749Z,73.89
2022-08-09T04:39:59.399Z,72.60
2022-08-09T04:43:05.871Z,73.45
2022-08-09T04:46:08.454Z,72.52
2022-08-09T04:49:40.840Z,71.59
2022-08-09T04:52:45.047Z,70.08
2022-08-09T04:55:58.433Z,67.16
2022-08-09T04:59:07.408Z,64.26
2022-08-09T05:02:16.011Z,61.70
2022-08-09T05:05:31.490Z,58.66
2022-08-09T05:08:43.776Z,55.77
2022-08-09T05:11:50.281Z,53.95
2022-08-09T05:14:53.306Z,52.25
2022-08-09T05:18:39.215Z,51.30
2022-08-09T05:21:24.498Z,49.71
2022-08-09T05:24:27.847Z,47.38
2022-08-09T05:27:31.309Z,46.23
2022-08-09T05:30:34.577Z,46.54
2022-08-09T05:33:42.641Z,45.06
2022-08-09T05:36:46.763Z,44.32
2022-08-09T05:39:51.386Z,43.69
2022-08-09T05:42:57.672Z,42.59
2022-08-09T05:46:02.159Z,42.29
2022-08-09T05:49:07.448Z,42.14
2022-08-09T05:52:31.667Z,43.00
2022-08-09T05:55:35.064Z,42.16
2022-08-09T05:58:38.154Z,41.57
2022-08-09T06:01:44.368Z,41.27
2022-08-09T06:04:48.926Z,40.25
2022-08-09T06:08:08.149Z,38.99
2022-08-09T06:11:16.359Z,38.59
2022-08-09T06:14:20.304Z,38.85
2022-08-09T06:17:23.915Z,38.98
2022-08-09T06:20:27.593Z,38.44
2022-08-09T06:23:57.874Z,37.06
2022-08-09T06:26:57.050Z,36.07
2022-08-09T06:30:08.812Z,36.67
2022-08-09T06:33:30.077Z,36.19
2022-08-09T06:36:33.668Z,35.43
2022-08-09T06:39:48.358Z,34.90
2022-08-09T06:42:54.002Z,34.89
2022-08-09T06:46:06.861Z,34.83
2022-08-09T06:49:16.125Z,34.61
2022-08-09T06:52:26.983Z,34.79
2022-08-09T06:55:33.062Z,33.75
2022-08-09T07:00:46.990Z,33.42
2022-08-09T07:02:03.702Z,33.15
2022-08-09T07:05:08.336Z,32.97
2022-08-09T07:08:11.227Z,31.83
2022-08-09T07:11:17.739Z,32.78
2022-08-09T07:14:27.333Z,32.47
2022-08-09T07:17:39.490Z,31.57
2022-08-09T07:20:44.468Z,32.12
2022-08-09T07:23:56.441Z,31.22
2022-08-09T07:27:02.227Z,32.01
2022-08-09T07:30:06.066Z,31.68
2022-08-09T07:33:12.448Z,31.75
2022-08-09T07:36:19.811Z,31.24
2022-08-09T07:39:40.516Z,31.76
2022-08-09T07:42:54.145Z,31.16
2022-08-09T07:46:02.065Z,29.94
2022-08-09T07:49:06.454Z,29.25
2022-08-09T07:52:17.768Z,28.69
2022-08-09T07:55:21.279Z,29.04
2022-08-09T07:58:31.817Z,29.95
2022-08-09T08:01:35.755Z,30.30
2022-08-09T08:04:42.614Z,31.19
2022-08-09T08:08:43.622Z,30.42
2022-08-09T08:12:10.511Z,31.40
2022-08-09T08:14:38.510Z,31.01
2022-08-09T08:17:53.461Z,29.36
2022-08-09T08:20:58.309Z,30.25
2022-08-09T08:24:12.092Z,30.58
2022-08-09T08:27:19.101Z,30.41
2022-08-09T08:30:28.852Z,30.86
2022-08-09T08:33:49.613Z,31.20
2022-08-09T08:36:54.669Z,31.37
2022-08-09T08:39:58.759Z,32.32
2022-08-09T08:43:13.327Z,32.68
2022-08-09T08:46:32.115Z,31.53
2022-08-09T08:49:48.025Z,31.76
2022-08-09T08:52:58.971Z,30.56
2022-08-09T08:56:03.331Z,30.67
2022-08-09T08:59:19.786Z,32.15
2022-08-09T09:02:31.334Z,31.90
2022-08-09T09:05:58.471Z,31.63
2022-08-09T09:08:59.591Z,32.20
2022-08-09T09:12:03.080Z,32.06
2022-08-09T09:15:12.089Z,32.42
2022-08-09T09:18:16.371Z,33.08
2022-08-09T09:21:26.170Z,33.58
2022-08-09T09:24:31.544Z,32.91
2022-08-09T09:28:04.141Z,33.32
2022-08-09T09:30:58.245Z,33.09
2022-08-09T09:34:15.295Z,32.81
2022-08-09T09:37:32.125Z,33.27
2022-08-09T09:40:46.163Z,33.88
2022-08-09T09:44:11.575Z,33.77
2022-08-09T09:47:16.832Z,33.25
2022-08-09T09:50:49.559Z,34.25
2022-08-09T09:54:18.122Z,34.11
2022-08-09T09:58:03.711Z,34.63
2022-08-09T10:00:55.728Z,33.60
2022-08-09T10:04:09.506Z,33.61
2022-08-09T10:07:26.301Z,33.13
2022-08-09T10:10:31.323Z,33.47
2022-08-09T10:13:45.249Z,32.60
2022-08-09T10:16:57.649Z,33.12
2022-08-09T10:20:27.029Z,32.78
2022-08-09T10:23:37.479Z,33.43
2022-08-09T10:26:44.348Z,33.17
2022-08-09T10:30:56.807Z,33.11
2022-08-09T10:34:04.344Z,33.28
2022-08-09T10:36:36.579Z,32.99
2022-08-09T10:39:49.460Z,36.45
2022-08-09T10:42:53.377Z,36.41
2022-08-09T10:46:00.120Z,36.34
2022-08-09T10:49:46.909Z,36.36
2022-08-09T10:53:05.637Z,35.96
2022-08-09T10:56:22.958Z,37.28
2022-08-09T10:59:30.671Z,37.56
2022-08-09T11:03:12.032Z,37.81
2022-08-09T11:06:15.447Z,36.25
2022-08-09T11:09:41.246Z,37.17
2022-08-09T11:13:51.063Z,36.91
2022-08-09T11:16:47.168Z,36.60
2022-08-09T11:20:10.964Z,37.11
2022-08-09T11:23:23.950Z,36.65
2022-08-09T11:26:40.810Z,37.31
2022-08-09T11:30:04.199Z,38.83
2022-08-09T11:33:18.282Z,38.04
2022-08-09T11:36:30.532Z,39.54
2022-08-09T11:40:02.862Z,39.48
2022-08-09T11:43:07.404Z,38.92
2022-08-09T11:46:12.277Z,38.35
2022-08-09T11:49:16.892Z,37.39
2022-08-09T11:53:01.142Z,38.14
2022-08-09T11:55:53.228Z,38.04
2022-08-09T11:59:05.819Z,38.91
2022-08-09T12:02:34.657Z,39.06
2022-08-09T12:05:42.196Z,38.57
2022-08-09T12:08:53.579Z,39.51
2022-08-09T12:12:04.083Z,37.51
2022-08-09T12:15:50.344Z,37.34
2022-08-09T12:18:53.915Z,37.82
2022-08-09T12:22:01.994Z,36.92
2022-08-09T12:25:16.022Z,37.15
2022-08-09T12:29:13.736Z,36.42
2022-08-09T12:32:01.604Z,36.95
2022-08-09T12:35:10.807Z,37.07
2022-08-09T12:38:37.525Z,37.15
2022-08-09T12:41:41.386Z,37.16
2022-08-09T12:44:52.232Z,37.67
2022-08-09T12:47:57.476Z,37.41
2022-08-09T12:51:03.916Z,37.60
2022-08-09T12:54:08.221Z,37.22
2022-08-09T12:57:11.207Z,37.25
2022-08-09T13:00:25.494Z,36.38
2022-08-09T13:03:57.039Z,36.17
2022-08-09T13:06:54.902Z,37.05
2022-08-09T13:10:04.860Z,36.38
2022-08-09T13:13:11.288Z,35.59
2022-08-09T13:16:17.553Z,35.13
2022-08-09T13:20:09.377Z,35.69
2022-08-09T13:24:06.000Z,35.65
2022-08-09T13:26:52.129Z,35.95
2022-08-09T13:30:02.679Z,35.32
2022-08-09T13:33:07.099Z,35.61
2022-08-09T13:36:37.502Z,36.14
2022-08-09T13:41:50.485Z,36.32
2022-08-09T13:43:03.502Z,36.65
2022-08-09T13:47:14.550Z,36.51
2022-08-09T13:49:38.045Z,37.42
2022-08-09T13:52:43.433Z,37.27
2022-08-09T13:55:50.507Z,37.30
2022-08-09T13:58:53.447Z,37.40
2022-08-09T14:02:01.842Z,37.37
2022-08-09T14:05:05.801Z,38.11
2022-08-09T14:08:10.326Z,38.05
2022-08-09T14:11:16.073Z,39.10
2022-08-09T14:14:26.062Z,38.41
2022-08-09T14:17:32.670Z,38.99
2022-08-09T14:20:54.880Z,38.93
2022-08-09T14:24:01.114Z,39.39
2022-08-09T14:27:19.841Z,39.14
2022-08-09T14:30:36.730Z,39.17
2022-08-09T14:33:43.811Z,38.85
2022-08-09T14:36:55.829Z,38.31
2022-08-09T14:39:58.610Z,37.95
2022-08-09T14:43:02.119Z,38.08
2022-08-09T14:46:54.603Z,37.65
2022-08-09T14:49:28.986Z,38.40
2022-08-09T14:52:37.675Z,37.94
2022-08-09T14:55:48.092Z,38.38
2022-08-09T14:58:56.155Z,37.98
2022-08-09T15:01:59.482Z,38.38
2022-08-09T15:05:02.214Z,38.61
2022-08-09T15:08:06.515Z,38.69
2022-08-09T15:11:13.173Z,38.38
2022-08-09T15:14:19.494Z,37.94
2022-08-09T15:17:22.209Z,38.09
2022-08-09T15:21:57.166Z,37.57
2022-08-09T15:24:06.032Z,38.02
2022-08-09T15:27:15.488Z,38.15
2022-08-09T15:30:56.559Z,38.50
2022-08-09T15:34:19.545Z,38.46
2022-08-09T15:37:37.745Z,38.21
2022-08-09T15:40:44.235Z,38.01
2022-08-09T15:43:47.016Z,37.92
2022-08-09T15:46:49.907Z,39.02
2022-08-09T15:50:00.333Z,39.81
2022-08-09T15:54:02.137Z,39.48
2022-08-09T15:56:30.983Z,40.43
2022-08-09T15:59:37.300Z,40.59
2022-08-09T16:02:40.287Z,41.00
2022-08-09T16:05:53.773Z,40.77
2022-08-09T16:09:01.152Z,40.39
2022-08-09T16:12:06.790Z,40.62
2022-08-09T16:16:10.255Z,40.95
2022-08-09T16:18:37.360Z,40.91
2022-08-09T16:21:51.957Z,41.32
2022-08-09T16:24:59.590Z,41.14
2022-08-09T16:28:04.403Z,41.42
2022-08-09T16:31:16.229Z,41.22
2022-08-09T16:34:19.147Z,41.09
2022-08-09T16:37:53.656Z,41.25
2022-08-09T16:40:49.478Z,41.53
2022-08-09T16:43:52.798Z,41.74
2022-08-09T16:47:04.219Z,41.77
2022-08-09T16:50:31.320Z,41.87
2022-08-09T16:53:37.304Z,41.97
2022-08-09T16:56:48.951Z,41.97
2022-08-09T16:59:57.474Z,42.09
2022-08-09T17:03:00.994Z,41.98
2022-08-09T17:06:28.199Z,42.02
2022-08-09T17:09:45.339Z,42.41
2022-08-09T17:12:49.488Z,43.00
2022-08-09T17:15:59.076Z,43.68
2022-08-09T17:19:03.371Z,44.11
2022-08-09T17:22:08.327Z,44.62
2022-08-09T17:25:13.086Z,45.01
2022-08-09T17:28:16.166Z,45.62
2022-08-09T17:31:20.852Z,46.16
2022-08-09T17:35:01.443Z,46.41
2022-08-09T17:38:12.511Z,46.66
2022-08-09T17:41:12.158Z,46.48
2022-08-09T17:44:42.109Z,46.57
2022-08-09T17:47:47.034Z,46.86
2022-08-09T17:50:56.377Z,47.01
2022-08-09T17:54:02.789Z,47.40
2022-08-09T17:57:07.967Z,47.79
2022-08-09T18:00:33.588Z,48.03
2022-08-09T18:03:47.146Z,48.53
2022-08-09T18:07:23.665Z,48.85
2022-08-09T18:10:13.391Z,49.05
2022-08-09T18:13:39.133Z,49.45
2022-08-09T18:16:48.879Z,49.84
2022-08-09T18:21:00.343Z,50.13
2022-08-09T18:24:12.347Z,50.32
2022-08-09T18:26:46.748Z,50.86
2022-08-09T18:30:38.121Z,50.67
2022-08-09T18:33:15.277Z,50.68
2022-08-09T18:36:25.602Z,50.63
2022-08-09T18:39:35.249Z,50.52
2022-08-09T18:42:44.245Z,50.83
2022-08-09T18:46:47.707Z,50.32
2022-08-09T18:49:09.927Z,49.91
2022-08-09T18:52:13.377Z,50.13
2022-08-09T18:55:29.254Z,50.45
2022-08-09T18:58:40.585Z,50.21
2022-08-09T19:01:46.257Z,50.63
2022-08-09T19:05:14.903Z,49.93
2022-08-09T19:08:14.144Z,50.13
2022-08-09T19:11:23.813Z,49.89
2022-08-09T19:14:40.476Z,50.05
2022-08-09T19:17:54.299Z,50.91
2022-08-09T19:21:00.659Z,51.58
2022-08-09T19:24:33.357Z,50.82
2022-08-09T19:27:28.941Z,50.41
2022-08-09T19:30:32.313Z,50.42
2022-08-09T19:33:35.656Z,50.50
2022-08-09T19:36:38.341Z,50.66
2022-08-09T19:40:03.068Z,50.08
2022-08-09T19:43:10.227Z,49.34
2022-08-09T19:46:34.127Z,49.15
2022-08-09T19:50:07.501Z,49.30
2022-08-09T19:53:04.396Z,49.15
2022-08-09T19:56:07.695Z,49.18
2022-08-09T19:59:58.385Z,49.72
2022-08-09T20:04:11.217Z,48.99
2022-08-09T20:06:22.632Z,48.93
2022-08-09T20:09:44.390Z,49.03
2022-08-09T20:12:49.225Z,49.05
2022-08-09T20:16:33.819Z,48.98
2022-08-09T20:19:49.118Z,48.72
2022-08-09T20:22:44.658Z,48.28
2022-08-09T20:25:49.625Z,47.79
2022-08-09T20:28:55.743Z,47.45
2022-08-09T20:32:29.830Z,47.26
2022-08-09T20:35:21.981Z,47.15
2022-08-09T20:38:30.901Z,47.20
2022-08-09T20:41:49.035Z,47.18
2022-08-09T20:45:04.577Z,46.98
2022-08-09T20:48:20.951Z,47.12
2022-08-09T20:51:25.485Z,47.15
2022-08-09T20:54:28.889Z,47.42
2022-08-09T20:57:32.494Z,47.64
2022-08-09T21:00:35.997Z,47.95
2022-08-09T21:05:49.222Z,47.98
2022-08-09T21:07:14.011Z,48.21
2022-08-09T21:10:17.749Z,48.63
2022-08-09T21:13:21.350Z,48.76
2022-08-09T21:16:30.436Z,48.65
2022-08-09T21:20:17.304Z,48.52
2022-08-09T21:22:56.852Z,48.15
2022-08-09T21:26:00.264Z,47.79
2022-08-09T21:29:11.982Z,47.75
2022-08-09T21:32:18.788Z,47.95
2022-08-09T21:35:22.089Z,48.17
2022-08-09T21:38:31.053Z,48.28
2022-08-09T21:42:04.477Z,48.53
2022-08-09T21:44:57.752Z,49.23
2022-08-09T21:48:01.290Z,49.68
2022-08-09T21:51:13.348Z,49.80
2022-08-09T21:54:17.315Z,50.07
2022-08-09T21:57:36.861Z,50.05
2022-08-09T22:00:41.635Z,48.20
2022-08-09T22:03:48.386Z,48.04
2022-08-09T22:07:04.688Z,48.63
2022-08-09T22:10:10.037Z,47.22
2022-08-09T22:13:13.285Z,45.55
2022-08-09T22:16:21.333Z,46.19
2022-08-09T22:19:58.368Z,47.03
2022-08-09T22:22:49.379Z,47.87
2022-08-09T22:26:06.653Z,48.11
2022-08-09T22:29:11.737Z,47.18
2022-08-09T22:32:29.836Z,46.67
2022-08-09T22:36:01.652Z,45.08
2022-08-09T22:38:57.057Z,44.27
2022-08-09T22:42:16.084Z,43.37
2022-08-09T22:48:10.454Z,42.94
2022-08-09T22:48:50.626Z,43.10
2022-08-09T22:51:56.876Z,43.31
2022-08-09T22:55:00.605Z,43.33
2022-08-09T22:58:04.948Z,43.51
2022-08-09T23:01:08.250Z,43.79
2022-08-09T23:04:11.065Z,43.90
2022-08-09T23:08:23.018Z,44.06
2022-08-09T23:10:56.103Z,44.35
2022-08-09T23:13:59.701Z,44.58
2022-08-09T23:17:02.373Z,44.40
2022-08-09T23:20:08.016Z,44.39
2022-08-09T23:23:11.030Z,44.55
2022-08-09T23:26:13.954Z,44.90
2022-08-09T23:29:17.911Z,44.40
2022-08-09T23:32:20.869Z,44.50
2022-08-09T23:35:23.601Z,44.78
2022-08-09T23:38:26.609Z,44.84
2022-08-09T23:41:29.846Z,45.14
2022-08-09T23:44:33.154Z,45.17
2022-08-09T23:47:35.761Z,45.42
2022-08-09T23:50:38.950Z,45.66
2022-08-09T23:53:42.248Z,46.07
2022-08-09T23:56:54.281Z,46.48
